sensor_id;sensor_type;location;lat;lon;timestamp;P1;durP1;ratioP1;P2;durP2;ratioP2
59442;SDS011;45247;47.466;19.004;2022-12-07T00:01:41;17.20;;;9.80;;
59442;SDS011;45247;47.466;19.004;2022-12-07T00:04:11;21.55;;;12.40;;
59442;SDS011;45247;47.466;19.004;2022-12-07T00:06:41;19.85;;;12.30;;
59442;SDS011;45247;47.466;19.004;2022-12-07T00:09:11;20.83;;;11.68;;
59442;SDS011;45247;47.466;19.004;2022-12-07T00:11:41;22.40;;;12.48;;
59442;SDS011;45247;47.466;19.004;2022-12-07T00:14:13;20.75;;;13.38;;
59442;SDS011;45247;47.466;19.004;2022-12-07T00:16:42;22.60;;;13.55;;
59442;SDS011;45247;47.466;19.004;2022-12-07T00:19:12;25.45;;;12.95;;
59442;SDS011;45247;47.466;19.004;2022-12-07T00:21:41;22.55;;;13.13;;
59442;SDS011;45247;47.466;19.004;2022-12-07T00:24:10;21.55;;;12.50;;
59442;SDS011;45247;47.466;19.004;2022-12-07T00:26:39;22.15;;;13.57;;
59442;SDS011;45247;47.466;19.004;2022-12-07T00:29:11;23.55;;;14.10;;
59442;SDS011;45247;47.466;19.004;2022-12-07T00:31:43;23.90;;;13.27;;
59442;SDS011;45247;47.466;19.004;2022-12-07T00:34:11;24.33;;;13.90;;
59442;SDS011;45247;47.466;19.004;2022-12-07T00:36:41;24.38;;;14.38;;
59442;SDS011;45247;47.466;19.004;2022-12-07T00:39:09;25.17;;;13.45;;
59442;SDS011;45247;47.466;19.004;2022-12-07T00:41:37;25.75;;;13.88;;
59442;SDS011;45247;47.466;19.004;2022-12-07T00:44:05;24.13;;;13.77;;
59442;SDS011;45247;47.466;19.004;2022-12-07T00:46:35;25.95;;;14.82;;
59442;SDS011;45247;47.466;19.004;2022-12-07T00:49:03;23.52;;;12.90;;
59442;SDS011;45247;47.466;19.004;2022-12-07T00:51:31;23.88;;;13.68;;
59442;SDS011;45247;47.466;19.004;2022-12-07T00:53:59;24.02;;;12.80;;
59442;SDS011;45247;47.466;19.004;2022-12-07T00:56:28;20.42;;;12.35;;
59442;SDS011;45247;47.466;19.004;2022-12-07T00:58:57;27.00;;;13.23;;
59442;SDS011;45247;47.466;19.004;2022-12-07T01:01:27;25.10;;;12.40;;
59442;SDS011;45247;47.466;19.004;2022-12-07T01:03:58;24.88;;;13.32;;
59442;SDS011;45247;47.466;19.004;2022-12-07T01:06:27;22.92;;;13.07;;
59442;SDS011;45247;47.466;19.004;2022-12-07T01:08:56;25.42;;;15.07;;
59442;SDS011;45247;47.466;19.004;2022-12-07T01:11:25;28.05;;;15.70;;
59442;SDS011;45247;47.466;19.004;2022-12-07T01:13:55;27.38;;;14.00;;
59442;SDS011;45247;47.466;19.004;2022-12-07T01:16:26;23.33;;;14.38;;
59442;SDS011;45247;47.466;19.004;2022-12-07T01:18:56;23.08;;;13.95;;
59442;SDS011;45247;47.466;19.004;2022-12-07T01:21:28;27.25;;;13.73;;
59442;SDS011;45247;47.466;19.004;2022-12-07T01:24:01;24.55;;;12.45;;
59442;SDS011;45247;47.466;19.004;2022-12-07T01:26:30;21.75;;;11.93;;
59442;SDS011;45247;47.466;19.004;2022-12-07T01:28:58;19.67;;;10.93;;
59442;SDS011;45247;47.466;19.004;2022-12-07T01:31:27;18.15;;;10.82;;
59442;SDS011;45247;47.466;19.004;2022-12-07T01:33:57;19.63;;;11.00;;
59442;SDS011;45247;47.466;19.004;2022-12-07T01:36:28;18.73;;;11.07;;
59442;SDS011;45247;47.466;19.004;2022-12-07T01:38:58;25.77;;;12.05;;
59442;SDS011;45247;47.466;19.004;2022-12-07T01:41:28;21.45;;;12.18;;
59442;SDS011;45247;47.466;19.004;2022-12-07T01:44:13;30.63;;;15.02;;
59442;SDS011;45247;47.466;19.004;2022-12-07T01:46:43;24.77;;;14.07;;
59442;SDS011;45247;47.466;19.004;2022-12-07T01:49:16;20.50;;;12.45;;
59442;SDS011;45247;47.466;19.004;2022-12-07T01:51:48;23.17;;;12.93;;
59442;SDS011;45247;47.466;19.004;2022-12-07T01:54:19;22.90;;;12.85;;
59442;SDS011;45247;47.466;19.004;2022-12-07T01:56:50;25.73;;;13.60;;
59442;SDS011;45247;47.466;19.004;2022-12-07T01:59:21;28.30;;;13.97;;
59442;SDS011;45247;47.466;19.004;2022-12-07T02:01:52;24.75;;;14.32;;
59442;SDS011;45247;47.466;19.004;2022-12-07T02:04:24;27.67;;;14.50;;
59442;SDS011;45247;47.466;19.004;2022-12-07T02:06:52;25.05;;;13.15;;
59442;SDS011;45247;47.466;19.004;2022-12-07T02:09:21;23.75;;;14.00;;
59442;SDS011;45247;47.466;19.004;2022-12-07T02:11:49;28.65;;;15.13;;
59442;SDS011;45247;47.466;19.004;2022-12-07T02:14:18;24.70;;;14.60;;
59442;SDS011;45247;47.466;19.004;2022-12-07T02:16:48;25.33;;;14.02;;
59442;SDS011;45247;47.466;19.004;2022-12-07T02:25:49;22.75;;;12.85;;
59442;SDS011;45247;47.466;19.004;2022-12-07T02:28:29;25.30;;;13.18;;
59442;SDS011;45247;47.466;19.004;2022-12-07T02:33:33;22.02;;;13.13;;
59442;SDS011;45247;47.466;19.004;2022-12-07T02:36:05;23.30;;;13.30;;
59442;SDS011;45247;47.466;19.004;2022-12-07T02:38:37;22.38;;;12.95;;
59442;SDS011;45247;47.466;19.004;2022-12-07T02:41:08;19.45;;;12.20;;
59442;SDS011;45247;47.466;19.004;2022-12-07T02:43:40;23.23;;;12.23;;
59442;SDS011;45247;47.466;19.004;2022-12-07T02:46:15;20.95;;;12.40;;
59442;SDS011;45247;47.466;19.004;2022-12-07T02:48:47;19.67;;;11.98;;
59442;SDS011;45247;47.466;19.004;2022-12-07T02:51:17;22.98;;;13.43;;
59442;SDS011;45247;47.466;19.004;2022-12-07T02:53:45;18.08;;;11.27;;
59442;SDS011;45247;47.466;19.004;2022-12-07T02:56:16;19.65;;;12.35;;
59442;SDS011;45247;47.466;19.004;2022-12-07T02:58:59;19.60;;;11.20;;
59442;SDS011;45247;47.466;19.004;2022-12-07T03:01:35;25.73;;;12.77;;
59442;SDS011;45247;47.466;19.004;2022-12-07T03:04:15;17.90;;;11.55;;
59442;SDS011;45247;47.466;19.004;2022-12-07T03:07:01;21.17;;;12.30;;
59442;SDS011;45247;47.466;19.004;2022-12-07T03:09:40;24.35;;;12.48;;
59442;SDS011;45247;47.466;19.004;2022-12-07T03:12:19;21.10;;;11.07;;
59442;SDS011;45247;47.466;19.004;2022-12-07T03:14:55;19.38;;;12.20;;
59442;SDS011;45247;47.466;19.004;2022-12-07T03:17:30;22.38;;;11.82;;
59442;SDS011;45247;47.466;19.004;2022-12-07T03:20:03;22.58;;;11.88;;
59442;SDS011;45247;47.466;19.004;2022-12-07T03:25:04;19.08;;;10.85;;
59442;SDS011;45247;47.466;19.004;2022-12-07T03:27:35;19.05;;;12.00;;
59442;SDS011;45247;47.466;19.004;2022-12-07T03:30:08;20.08;;;12.02;;
59442;SDS011;45247;47.466;19.004;2022-12-07T03:32:41;18.77;;;12.38;;
59442;SDS011;45247;47.466;19.004;2022-12-07T03:35:14;25.85;;;15.07;;
59442;SDS011;45247;47.466;19.004;2022-12-07T03:40:16;24.73;;;12.43;;
59442;SDS011;45247;47.466;19.004;2022-12-07T03:42:49;22.17;;;12.68;;
59442;SDS011;45247;47.466;19.004;2022-12-07T03:45:19;20.70;;;12.13;;
59442;SDS011;45247;47.466;19.004;2022-12-07T03:47:54;18.70;;;11.57;;
59442;SDS011;45247;47.466;19.004;2022-12-07T03:50:35;20.05;;;12.05;;
59442;SDS011;45247;47.466;19.004;2022-12-07T03:53:10;23.98;;;13.57;;
59442;SDS011;45247;47.466;19.004;2022-12-07T03:55:42;22.52;;;11.82;;
59442;SDS011;45247;47.466;19.004;2022-12-07T03:58:14;19.77;;;11.98;;
59442;SDS011;45247;47.466;19.004;2022-12-07T04:00:45;22.55;;;12.13;;
59442;SDS011;45247;47.466;19.004;2022-12-07T04:03:15;20.35;;;11.98;;
59442;SDS011;45247;47.466;19.004;2022-12-07T04:05:44;23.52;;;13.80;;
59442;SDS011;45247;47.466;19.004;2022-12-07T04:08:12;27.35;;;14.75;;
59442;SDS011;45247;47.466;19.004;2022-12-07T04:10:41;24.23;;;13.43;;
59442;SDS011;45247;47.466;19.004;2022-12-07T04:13:09;26.55;;;14.65;;
59442;SDS011;45247;47.466;19.004;2022-12-07T04:15:37;22.40;;;12.98;;
59442;SDS011;45247;47.466;19.004;2022-12-07T04:18:05;22.17;;;13.30;;
59442;SDS011;45247;47.466;19.004;2022-12-07T04:20:35;20.90;;;12.52;;
59442;SDS011;45247;47.466;19.004;2022-12-07T04:23:03;18.83;;;11.63;;
59442;SDS011;45247;47.466;19.004;2022-12-07T04:25:31;20.00;;;12.30;;
59442;SDS011;45247;47.466;19.004;2022-12-07T04:28:00;21.52;;;12.23;;
59442;SDS011;45247;47.466;19.004;2022-12-07T04:30:28;16.60;;;11.27;;
59442;SDS011;45247;47.466;19.004;2022-12-07T04:32:57;17.23;;;10.63;;
59442;SDS011;45247;47.466;19.004;2022-12-07T04:35:25;22.60;;;12.30;;
59442;SDS011;45247;47.466;19.004;2022-12-07T04:37:54;19.90;;;11.50;;
59442;SDS011;45247;47.466;19.004;2022-12-07T04:40:22;21.05;;;12.05;;
59442;SDS011;45247;47.466;19.004;2022-12-07T04:42:50;17.73;;;11.35;;
59442;SDS011;45247;47.466;19.004;2022-12-07T04:45:19;17.70;;;11.18;;
59442;SDS011;45247;47.466;19.004;2022-12-07T04:47:47;15.82;;;11.05;;
59442;SDS011;45247;47.466;19.004;2022-12-07T04:50:15;20.33;;;11.88;;
59442;SDS011;45247;47.466;19.004;2022-12-07T04:52:43;15.98;;;10.68;;
59442;SDS011;45247;47.466;19.004;2022-12-07T04:55:12;14.48;;;9.75;;
59442;SDS011;45247;47.466;19.004;2022-12-07T04:57:41;15.50;;;9.30;;
59442;SDS011;45247;47.466;19.004;2022-12-07T05:00:09;14.40;;;10.10;;
59442;SDS011;45247;47.466;19.004;2022-12-07T05:02:38;18.30;;;11.05;;
59442;SDS011;45247;47.466;19.004;2022-12-07T05:05:06;21.02;;;12.13;;
59442;SDS011;45247;47.466;19.004;2022-12-07T05:07:35;17.17;;;11.82;;
59442;SDS011;45247;47.466;19.004;2022-12-07T05:10:03;18.63;;;11.93;;
59442;SDS011;45247;47.466;19.004;2022-12-07T05:12:34;19.63;;;11.85;;
59442;SDS011;45247;47.466;19.004;2022-12-07T05:15:03;20.45;;;11.43;;
59442;SDS011;45247;47.466;19.004;2022-12-07T05:17:31;19.35;;;11.90;;
59442;SDS011;45247;47.466;19.004;2022-12-07T05:20:00;16.52;;;9.95;;
59442;SDS011;45247;47.466;19.004;2022-12-07T05:22:28;21.23;;;11.90;;
59442;SDS011;45247;47.466;19.004;2022-12-07T05:24:56;19.58;;;11.77;;
59442;SDS011;45247;47.466;19.004;2022-12-07T05:27:24;18.67;;;11.90;;
59442;SDS011;45247;47.466;19.004;2022-12-07T05:29:54;21.50;;;12.43;;
59442;SDS011;45247;47.466;19.004;2022-12-07T05:32:22;18.75;;;11.63;;
59442;SDS011;45247;47.466;19.004;2022-12-07T05:34:50;18.05;;;12.35;;
59442;SDS011;45247;47.466;19.004;2022-12-07T05:37:21;21.67;;;12.30;;
59442;SDS011;45247;47.466;19.004;2022-12-07T05:39:49;21.65;;;13.25;;
59442;SDS011;45247;47.466;19.004;2022-12-07T05:42:17;17.50;;;11.63;;
59442;SDS011;45247;47.466;19.004;2022-12-07T05:44:45;21.10;;;12.88;;
59442;SDS011;45247;47.466;19.004;2022-12-07T05:47:15;23.55;;;13.73;;
59442;SDS011;45247;47.466;19.004;2022-12-07T05:49:44;23.20;;;13.57;;
59442;SDS011;45247;47.466;19.004;2022-12-07T05:52:12;24.48;;;14.93;;
59442;SDS011;45247;47.466;19.004;2022-12-07T05:54:40;24.00;;;14.30;;
59442;SDS011;45247;47.466;19.004;2022-12-07T05:57:08;22.17;;;13.38;;
59442;SDS011;45247;47.466;19.004;2022-12-07T05:59:36;31.40;;;16.00;;
59442;SDS011;45247;47.466;19.004;2022-12-07T06:02:04;27.50;;;15.23;;
59442;SDS011;45247;47.466;19.004;2022-12-07T06:04:36;26.35;;;14.77;;
59442;SDS011;45247;47.466;19.004;2022-12-07T06:09:36;25.17;;;14.68;;
59442;SDS011;45247;47.466;19.004;2022-12-07T06:12:04;25.95;;;14.50;;
59442;SDS011;45247;47.466;19.004;2022-12-07T06:14:50;31.90;;;14.35;;
59442;SDS011;45247;47.466;19.004;2022-12-07T06:17:18;23.55;;;14.13;;
59442;SDS011;45247;47.466;19.004;2022-12-07T06:19:47;24.02;;;14.35;;
59442;SDS011;45247;47.466;19.004;2022-12-07T06:22:15;24.52;;;13.85;;
59442;SDS011;45247;47.466;19.004;2022-12-07T06:24:44;26.02;;;13.98;;
59442;SDS011;45247;47.466;19.004;2022-12-07T06:27:12;30.75;;;14.05;;
59442;SDS011;45247;47.466;19.004;2022-12-07T06:29:40;23.23;;;15.15;;
59442;SDS011;45247;47.466;19.004;2022-12-07T06:32:08;20.02;;;13.77;;
59442;SDS011;45247;47.466;19.004;2022-12-07T06:34:38;23.45;;;14.02;;
59442;SDS011;45247;47.466;19.004;2022-12-07T06:37:07;23.67;;;15.02;;
59442;SDS011;45247;47.466;19.004;2022-12-07T06:39:36;23.42;;;14.15;;
59442;SDS011;45247;47.466;19.004;2022-12-07T06:42:05;25.77;;;14.88;;
59442;SDS011;45247;47.466;19.004;2022-12-07T06:44:33;23.13;;;14.00;;
59442;SDS011;45247;47.466;19.004;2022-12-07T06:47:01;26.35;;;15.70;;
59442;SDS011;45247;47.466;19.004;2022-12-07T06:49:50;27.95;;;14.10;;
59442;SDS011;45247;47.466;19.004;2022-12-07T06:52:20;25.40;;;15.43;;
59442;SDS011;45247;47.466;19.004;2022-12-07T06:54:48;28.35;;;15.32;;
59442;SDS011;45247;47.466;19.004;2022-12-07T06:57:16;22.08;;;13.65;;
59442;SDS011;45247;47.466;19.004;2022-12-07T06:59:44;21.20;;;13.35;;
59442;SDS011;45247;47.466;19.004;2022-12-07T07:02:12;25.17;;;15.32;;
59442;SDS011;45247;47.466;19.004;2022-12-07T07:04:41;31.45;;;17.95;;
59442;SDS011;45247;47.466;19.004;2022-12-07T07:07:09;34.55;;;19.73;;
59442;SDS011;45247;47.466;19.004;2022-12-07T07:09:38;33.42;;;19.02;;
59442;SDS011;45247;47.466;19.004;2022-12-07T07:12:06;27.85;;;16.73;;
59442;SDS011;45247;47.466;19.004;2022-12-07T07:14:34;27.83;;;17.13;;
59442;SDS011;45247;47.466;19.004;2022-12-07T07:17:03;24.42;;;14.73;;
59442;SDS011;45247;47.466;19.004;2022-12-07T07:19:31;25.15;;;14.63;;
59442;SDS011;45247;47.466;19.004;2022-12-07T07:21:59;26.77;;;14.98;;
59442;SDS011;45247;47.466;19.004;2022-12-07T07:24:27;21.63;;;14.65;;
59442;SDS011;45247;47.466;19.004;2022-12-07T07:26:57;25.70;;;15.43;;
59442;SDS011;45247;47.466;19.004;2022-12-07T07:29:25;27.38;;;15.30;;
59442;SDS011;45247;47.466;19.004;2022-12-07T07:31:53;27.20;;;15.90;;
59442;SDS011;45247;47.466;19.004;2022-12-07T07:34:21;24.52;;;15.02;;
59442;SDS011;45247;47.466;19.004;2022-12-07T07:36:49;28.05;;;14.90;;
59442;SDS011;45247;47.466;19.004;2022-12-07T07:39:17;22.88;;;14.55;;
59442;SDS011;45247;47.466;19.004;2022-12-07T07:41:46;27.20;;;15.57;;
59442;SDS011;45247;47.466;19.004;2022-12-07T07:44:15;26.15;;;14.85;;
59442;SDS011;45247;47.466;19.004;2022-12-07T07:46:43;29.10;;;16.00;;
59442;SDS011;45247;47.466;19.004;2022-12-07T07:49:11;27.80;;;15.68;;
59442;SDS011;45247;47.466;19.004;2022-12-07T07:51:40;28.27;;;17.00;;
59442;SDS011;45247;47.466;19.004;2022-12-07T07:54:08;29.83;;;17.17;;
59442;SDS011;45247;47.466;19.004;2022-12-07T07:56:36;28.35;;;16.42;;
59442;SDS011;45247;47.466;19.004;2022-12-07T07:59:04;29.85;;;15.80;;
59442;SDS011;45247;47.466;19.004;2022-12-07T08:01:34;26.73;;;16.60;;
59442;SDS011;45247;47.466;19.004;2022-12-07T08:04:02;29.77;;;17.10;;
59442;SDS011;45247;47.466;19.004;2022-12-07T08:06:30;24.77;;;15.95;;
59442;SDS011;45247;47.466;19.004;2022-12-07T08:08:58;33.70;;;16.40;;
59442;SDS011;45247;47.466;19.004;2022-12-07T08:11:26;24.70;;;15.73;;
59442;SDS011;45247;47.466;19.004;2022-12-07T08:13:55;25.70;;;14.82;;
59442;SDS011;45247;47.466;19.004;2022-12-07T08:16:23;28.45;;;17.02;;
59442;SDS011;45247;47.466;19.004;2022-12-07T08:18:52;28.40;;;17.15;;
59442;SDS011;45247;47.466;19.004;2022-12-07T08:21:20;28.52;;;16.60;;
59442;SDS011;45247;47.466;19.004;2022-12-07T08:23:48;24.80;;;16.60;;
59442;SDS011;45247;47.466;19.004;2022-12-07T08:26:17;25.58;;;16.70;;
59442;SDS011;45247;47.466;19.004;2022-12-07T08:28:45;25.23;;;16.23;;
59442;SDS011;45247;47.466;19.004;2022-12-07T08:31:13;29.10;;;17.63;;
59442;SDS011;45247;47.466;19.004;2022-12-07T08:33:44;28.80;;;16.48;;
59442;SDS011;45247;47.466;19.004;2022-12-07T08:36:14;34.50;;;18.10;;
59442;SDS011;45247;47.466;19.004;2022-12-07T08:38:43;27.52;;;17.95;;
59442;SDS011;45247;47.466;19.004;2022-12-07T08:41:31;30.95;;;18.00;;
59442;SDS011;45247;47.466;19.004;2022-12-07T08:43:59;32.00;;;18.67;;
59442;SDS011;45247;47.466;19.004;2022-12-07T08:46:28;26.25;;;16.65;;
59442;SDS011;45247;47.466;19.004;2022-12-07T08:49:02;27.48;;;16.73;;
59442;SDS011;45247;47.466;19.004;2022-12-07T08:51:34;26.00;;;16.35;;
59442;SDS011;45247;47.466;19.004;2022-12-07T08:54:04;27.40;;;16.33;;
59442;SDS011;45247;47.466;19.004;2022-12-07T08:56:36;23.88;;;15.05;;
59442;SDS011;45247;47.466;19.004;2022-12-07T08:59:05;24.90;;;15.68;;
59442;SDS011;45247;47.466;19.004;2022-12-07T09:01:34;19.58;;;13.60;;
59442;SDS011;45247;47.466;19.004;2022-12-07T09:04:02;23.50;;;15.50;;
59442;SDS011;45247;47.466;19.004;2022-12-07T09:06:32;24.50;;;14.15;;
59442;SDS011;45247;47.466;19.004;2022-12-07T09:09:06;21.77;;;13.90;;
59442;SDS011;45247;47.466;19.004;2022-12-07T09:11:36;20.83;;;13.00;;
59442;SDS011;45247;47.466;19.004;2022-12-07T09:14:05;22.98;;;14.23;;
59442;SDS011;45247;47.466;19.004;2022-12-07T09:16:34;21.02;;;13.95;;
59442;SDS011;45247;47.466;19.004;2022-12-07T09:19:02;20.52;;;14.20;;
59442;SDS011;45247;47.466;19.004;2022-12-07T09:21:30;21.88;;;14.23;;
59442;SDS011;45247;47.466;19.004;2022-12-07T09:24:00;21.98;;;12.05;;
59442;SDS011;45247;47.466;19.004;2022-12-07T09:26:28;19.02;;;12.35;;
59442;SDS011;45247;47.466;19.004;2022-12-07T09:28:56;22.00;;;13.48;;
59442;SDS011;45247;47.466;19.004;2022-12-07T09:31:25;19.42;;;12.90;;
59442;SDS011;45247;47.466;19.004;2022-12-07T09:33:54;18.58;;;12.10;;
59442;SDS011;45247;47.466;19.004;2022-12-07T09:36:29;18.40;;;11.82;;
59442;SDS011;45247;47.466;19.004;2022-12-07T09:38:57;18.63;;;12.05;;
59442;SDS011;45247;47.466;19.004;2022-12-07T09:41:26;16.38;;;11.43;;
59442;SDS011;45247;47.466;19.004;2022-12-07T09:43:58;20.40;;;12.93;;
59442;SDS011;45247;47.466;19.004;2022-12-07T09:46:33;21.10;;;11.63;;
59442;SDS011;45247;47.466;19.004;2022-12-07T09:49:03;18.83;;;11.55;;
59442;SDS011;45247;47.466;19.004;2022-12-07T09:51:32;17.45;;;11.32;;
59442;SDS011;45247;47.466;19.004;2022-12-07T09:54:00;18.20;;;11.50;;
59442;SDS011;45247;47.466;19.004;2022-12-07T09:56:30;17.42;;;10.77;;
59442;SDS011;45247;47.466;19.004;2022-12-07T09:58:59;14.43;;;10.18;;
59442;SDS011;45247;47.466;19.004;2022-12-07T10:01:30;14.57;;;8.98;;
59442;SDS011;45247;47.466;19.004;2022-12-07T10:04:01;15.60;;;10.85;;
59442;SDS011;45247;47.466;19.004;2022-12-07T10:06:37;16.17;;;10.88;;
59442;SDS011;45247;47.466;19.004;2022-12-07T10:09:08;18.40;;;11.05;;
59442;SDS011;45247;47.466;19.004;2022-12-07T10:14:25;17.63;;;10.48;;
59442;SDS011;45247;47.466;19.004;2022-12-07T10:17:32;16.55;;;11.00;;
59442;SDS011;45247;47.466;19.004;2022-12-07T10:20:13;26.80;;;12.27;;
59442;SDS011;45247;47.466;19.004;2022-12-07T10:23:00;18.30;;;11.25;;
59442;SDS011;45247;47.466;19.004;2022-12-07T10:25:31;16.20;;;9.98;;
59442;SDS011;45247;47.466;19.004;2022-12-07T10:28:02;15.98;;;9.77;;
59442;SDS011;45247;47.466;19.004;2022-12-07T10:30:50;13.98;;;9.55;;
59442;SDS011;45247;47.466;19.004;2022-12-07T10:33:30;14.45;;;9.80;;
59442;SDS011;45247;47.466;19.004;2022-12-07T10:36:01;14.25;;;9.32;;
59442;SDS011;45247;47.466;19.004;2022-12-07T10:38:46;15.55;;;9.73;;
59442;SDS011;45247;47.466;19.004;2022-12-07T10:41:16;17.55;;;9.85;;
59442;SDS011;45247;47.466;19.004;2022-12-07T10:43:46;13.10;;;8.95;;
59442;SDS011;45247;47.466;19.004;2022-12-07T10:46:27;12.43;;;8.80;;
59442;SDS011;45247;47.466;19.004;2022-12-07T10:52:33;11.15;;;7.53;;
59442;SDS011;45247;47.466;19.004;2022-12-07T10:55:14;11.07;;;8.50;;
59442;SDS011;45247;47.466;19.004;2022-12-07T10:57:51;11.57;;;7.13;;
59442;SDS011;45247;47.466;19.004;2022-12-07T11:00:28;14.27;;;8.77;;
59442;SDS011;45247;47.466;19.004;2022-12-07T11:03:17;12.20;;;8.30;;
59442;SDS011;45247;47.466;19.004;2022-12-07T11:06:10;14.25;;;8.73;;
59442;SDS011;45247;47.466;19.004;2022-12-07T11:08:54;13.00;;;7.95;;
59442;SDS011;45247;47.466;19.004;2022-12-07T11:11:33;12.55;;;8.15;;
59442;SDS011;45247;47.466;19.004;2022-12-07T11:14:05;14.48;;;8.52;;
59442;SDS011;45247;47.466;19.004;2022-12-07T11:16:49;13.98;;;9.05;;
59442;SDS011;45247;47.466;19.004;2022-12-07T11:22:20;16.13;;;9.13;;
59442;SDS011;45247;47.466;19.004;2022-12-07T11:24:57;12.77;;;8.15;;
59442;SDS011;45247;47.466;19.004;2022-12-07T11:27:44;12.52;;;8.40;;
59442;SDS011;45247;47.466;19.004;2022-12-07T11:30:21;10.98;;;7.28;;
59442;SDS011;45247;47.466;19.004;2022-12-07T11:32:58;14.23;;;8.25;;
59442;SDS011;45247;47.466;19.004;2022-12-07T11:35:41;12.55;;;8.15;;
59442;SDS011;45247;47.466;19.004;2022-12-07T11:38:18;12.95;;;8.73;;
59442;SDS011;45247;47.466;19.004;2022-12-07T11:40:56;10.18;;;7.20;;
59442;SDS011;45247;47.466;19.004;2022-12-07T11:43:43;11.70;;;6.95;;
59442;SDS011;45247;47.466;19.004;2022-12-07T11:46:23;9.82;;;6.88;;
59442;SDS011;45247;47.466;19.004;2022-12-07T11:51:28;13.63;;;8.70;;
59442;SDS011;45247;47.466;19.004;2022-12-07T11:54:03;13.98;;;7.55;;
59442;SDS011;45247;47.466;19.004;2022-12-07T11:56:39;15.35;;;9.10;;
59442;SDS011;45247;47.466;19.004;2022-12-07T11:59:09;15.75;;;10.05;;
59442;SDS011;45247;47.466;19.004;2022-12-07T12:01:45;14.10;;;9.13;;
59442;SDS011;45247;47.466;19.004;2022-12-07T12:04:27;13.43;;;8.63;;
59442;SDS011;45247;47.466;19.004;2022-12-07T12:07:05;13.25;;;9.10;;
59442;SDS011;45247;47.466;19.004;2022-12-07T12:09:55;14.98;;;9.00;;
59442;SDS011;45247;47.466;19.004;2022-12-07T12:12:33;11.65;;;7.88;;
59442;SDS011;45247;47.466;19.004;2022-12-07T12:15:39;13.68;;;7.97;;
59442;SDS011;45247;47.466;19.004;2022-12-07T12:18:25;12.65;;;7.85;;
59442;SDS011;45247;47.466;19.004;2022-12-07T12:21:06;13.10;;;8.18;;
59442;SDS011;45247;47.466;19.004;2022-12-07T12:23:41;12.27;;;8.20;;
59442;SDS011;45247;47.466;19.004;2022-12-07T12:26:15;9.90;;;6.88;;
59442;SDS011;45247;47.466;19.004;2022-12-07T12:28:50;11.93;;;7.78;;
59442;SDS011;45247;47.466;19.004;2022-12-07T12:31:31;13.77;;;8.32;;
59442;SDS011;45247;47.466;19.004;2022-12-07T12:34:03;13.10;;;7.97;;
59442;SDS011;45247;47.466;19.004;2022-12-07T12:36:53;10.43;;;7.28;;
59442;SDS011;45247;47.466;19.004;2022-12-07T12:39:23;9.80;;;7.22;;
59442;SDS011;45247;47.466;19.004;2022-12-07T12:41:53;12.75;;;8.02;;
59442;SDS011;45247;47.466;19.004;2022-12-07T12:44:41;10.43;;;7.32;;
59442;SDS011;45247;47.466;19.004;2022-12-07T12:47:43;11.93;;;7.68;;
59442;SDS011;45247;47.466;19.004;2022-12-07T12:50:25;11.60;;;7.55;;
59442;SDS011;45247;47.466;19.004;2022-12-07T12:52:56;15.95;;;9.27;;
59442;SDS011;45247;47.466;19.004;2022-12-07T12:56:10;14.40;;;8.68;;
59442;SDS011;45247;47.466;19.004;2022-12-07T13:01:51;15.25;;;8.52;;
59442;SDS011;45247;47.466;19.004;2022-12-07T13:04:24;15.50;;;8.48;;
59442;SDS011;45247;47.466;19.004;2022-12-07T13:07:08;14.07;;;8.73;;
59442;SDS011;45247;47.466;19.004;2022-12-07T13:09:41;15.13;;;9.35;;
59442;SDS011;45247;47.466;19.004;2022-12-07T13:12:14;11.88;;;7.50;;
59442;SDS011;45247;47.466;19.004;2022-12-07T13:14:54;13.55;;;7.60;;
59442;SDS011;45247;47.466;19.004;2022-12-07T13:20:40;9.93;;;7.10;;
59442;SDS011;45247;47.466;19.004;2022-12-07T13:23:12;12.15;;;7.78;;
59442;SDS011;45247;47.466;19.004;2022-12-07T13:25:44;11.70;;;7.75;;
59442;SDS011;45247;47.466;19.004;2022-12-07T13:28:20;13.85;;;8.65;;
59442;SDS011;45247;47.466;19.004;2022-12-07T13:33:44;12.80;;;7.88;;
59442;SDS011;45247;47.466;19.004;2022-12-07T13:36:18;16.00;;;8.60;;
59442;SDS011;45247;47.466;19.004;2022-12-07T13:38:50;15.13;;;8.43;;
59442;SDS011;45247;47.466;19.004;2022-12-07T13:41:20;12.60;;;8.02;;
59442;SDS011;45247;47.466;19.004;2022-12-07T13:43:52;11.63;;;7.50;;
59442;SDS011;45247;47.466;19.004;2022-12-07T13:46:30;10.73;;;7.15;;
59442;SDS011;45247;47.466;19.004;2022-12-07T13:49:16;13.60;;;8.30;;
59442;SDS011;45247;47.466;19.004;2022-12-07T13:51:48;12.85;;;8.10;;
59442;SDS011;45247;47.466;19.004;2022-12-07T13:54:18;16.70;;;7.93;;
59442;SDS011;45247;47.466;19.004;2022-12-07T13:56:47;13.32;;;8.30;;
59442;SDS011;45247;47.466;19.004;2022-12-07T13:59:20;15.23;;;8.18;;
59442;SDS011;45247;47.466;19.004;2022-12-07T14:01:50;13.10;;;7.70;;
59442;SDS011;45247;47.466;19.004;2022-12-07T14:04:26;13.73;;;8.30;;
59442;SDS011;45247;47.466;19.004;2022-12-07T14:06:59;13.35;;;7.45;;
59442;SDS011;45247;47.466;19.004;2022-12-07T14:09:28;14.23;;;8.70;;
59442;SDS011;45247;47.466;19.004;2022-12-07T14:11:57;11.70;;;7.93;;
59442;SDS011;45247;47.466;19.004;2022-12-07T14:14:27;13.10;;;8.10;;
59442;SDS011;45247;47.466;19.004;2022-12-07T14:17:09;16.23;;;8.70;;
59442;SDS011;45247;47.466;19.004;2022-12-07T14:19:49;13.10;;;8.77;;
59442;SDS011;45247;47.466;19.004;2022-12-07T14:22:26;12.68;;;8.25;;
59442;SDS011;45247;47.466;19.004;2022-12-07T14:27:55;16.83;;;8.80;;
59442;SDS011;45247;47.466;19.004;2022-12-07T14:30:27;13.27;;;7.82;;
59442;SDS011;45247;47.466;19.004;2022-12-07T14:32:58;12.77;;;7.93;;
59442;SDS011;45247;47.466;19.004;2022-12-07T14:35:27;16.25;;;8.98;;
59442;SDS011;45247;47.466;19.004;2022-12-07T14:37:56;24.90;;;9.13;;
59442;SDS011;45247;47.466;19.004;2022-12-07T14:40:25;13.60;;;8.23;;
59442;SDS011;45247;47.466;19.004;2022-12-07T14:42:55;12.10;;;7.70;;
59442;SDS011;45247;47.466;19.004;2022-12-07T14:45:27;16.77;;;10.13;;
59442;SDS011;45247;47.466;19.004;2022-12-07T14:47:56;14.05;;;8.60;;
59442;SDS011;45247;47.466;19.004;2022-12-07T14:50:44;12.50;;;8.40;;
59442;SDS011;45247;47.466;19.004;2022-12-07T14:53:37;17.30;;;10.27;;
59442;SDS011;45247;47.466;19.004;2022-12-07T14:56:08;16.08;;;9.57;;
59442;SDS011;45247;47.466;19.004;2022-12-07T14:58:36;21.27;;;10.93;;
59442;SDS011;45247;47.466;19.004;2022-12-07T15:01:05;22.88;;;10.13;;
59442;SDS011;45247;47.466;19.004;2022-12-07T15:03:34;15.27;;;9.25;;
59442;SDS011;45247;47.466;19.004;2022-12-07T15:06:04;20.05;;;9.68;;
59442;SDS011;45247;47.466;19.004;2022-12-07T15:08:33;17.92;;;9.43;;
59442;SDS011;45247;47.466;19.004;2022-12-07T15:11:01;18.42;;;9.95;;
59442;SDS011;45247;47.466;19.004;2022-12-07T15:13:29;18.75;;;9.48;;
59442;SDS011;45247;47.466;19.004;2022-12-07T15:16:17;19.23;;;10.90;;
59442;SDS011;45247;47.466;19.004;2022-12-07T15:21:35;18.52;;;9.98;;
59442;SDS011;45247;47.466;19.004;2022-12-07T15:24:03;17.35;;;9.30;;
59442;SDS011;45247;47.466;19.004;2022-12-07T15:26:32;16.25;;;9.30;;